createdAt,value
2022-08-14T11:25:07.666Z,82.96
2022-08-14T11:26:07.658Z,83.32
2022-08-14T11:27:07.846Z,81.53
2022-08-14T11:28:11.085Z,80.11
2022-08-14T11:29:07.762Z,86.04
2022-08-14T11:30:51.225Z,80.02
2022-08-14T11:31:07.712Z,82.26
2022-08-14T11:32:07.828Z,82.07
2022-08-14T11:33:09.116Z,81.90
2022-08-14T11:34:10.475Z,83.75
2022-08-14T11:35:07.716Z,85.35
2022-08-14T11:36:17.267Z,80.63
2022-08-14T11:37:18.983Z,82.61
2022-08-14T11:38:07.687Z,82.74
2022-08-14T11:39:10.675Z,80.76
2022-08-14T11:40:07.792Z,80.98
2022-08-14T11:41:07.736Z,81.05
2022-08-14T11:42:57.191Z,80.45
2022-08-14T11:43:08.423Z,82.52
2022-08-14T11:44:13.260Z,81.97
2022-08-14T11:45:11.014Z,81.81
2022-08-14T11:46:07.728Z,80.31
2022-08-14T11:47:07.743Z,81.41
2022-08-14T11:48:10.809Z,84.78
2022-08-14T11:49:07.882Z,83.32
2022-08-14T11:50:07.767Z,80.57
2022-08-14T11:51:07.778Z,80.43
2022-08-14T11:52:07.823Z,81.31
2022-08-14T11:53:08.725Z,81.52
2022-08-14T11:54:08.506Z,85.77
2022-08-14T11:55:07.831Z,82.72
2022-08-14T11:56:07.773Z,84.19
2022-08-14T11:57:07.788Z,81.22
2022-08-14T11:58:07.868Z,86.01
2022-08-14T11:59:10.206Z,85.46
2022-08-14T12:00:08.510Z,83.68
2022-08-14T12:01:07.807Z,81.17
2022-08-14T12:02:07.852Z,84.28
2022-08-14T12:03:08.068Z,81.64
2022-08-14T12:04:07.962Z,80.26
2022-08-14T12:05:09.347Z,81.84
2022-08-14T12:06:09.463Z,82.60
2022-08-14T12:07:07.815Z,81.20
2022-08-14T12:08:11.899Z,81.14
2022-08-14T12:09:08.696Z,80.92
2022-08-14T12:10:26.639Z,81.27
2022-08-14T12:11:07.858Z,80.87
2022-08-14T12:12:07.816Z,82.62
2022-08-14T12:13:07.829Z,79.91
2022-08-14T12:14:07.864Z,78.80
2022-08-14T12:15:07.837Z,79.40
2022-08-14T12:16:11.347Z,78.62
2022-08-14T12:17:12.767Z,80.16
2022-08-14T12:18:11.326Z,81.61
2022-08-14T12:19:07.864Z,78.53
2022-08-14T12:20:09.325Z,78.12
2022-08-14T12:21:07.923Z,80.46
2022-08-14T12:22:07.858Z,81.15
2022-08-14T12:23:07.838Z,80.28
2022-08-14T12:24:08.577Z,81.48
2022-08-14T12:25:10.940Z,79.92
2022-08-14T12:26:31.547Z,79.97
2022-08-14T12:27:07.873Z,80.29
2022-08-14T12:28:07.889Z,84.51
2022-08-14T12:29:07.908Z,82.16
2022-08-14T12:30:07.890Z,82.26
2022-08-14T12:31:07.897Z,84.02
2022-08-14T12:32:12.678Z,81.44
2022-08-14T12:33:07.893Z,81.44
2022-08-14T12:34:10.088Z,81.35
2022-08-14T12:35:07.898Z,82.81
2022-08-14T12:36:07.957Z,82.32
2022-08-14T12:37:07.918Z,85.03
2022-08-14T12:38:07.915Z,87.13
2022-08-14T12:39:07.984Z,83.15
2022-08-14T12:40:07.970Z,88.11
2022-08-14T12:41:08.084Z,83.55
2022-08-14T12:42:07.956Z,84.91
2022-08-14T12:43:07.988Z,85.42
2022-08-14T12:44:08.477Z,82.35
2022-08-14T12:45:07.940Z,82.65
2022-08-14T12:46:07.951Z,82.54
2022-08-14T12:47:07.959Z,82.79
2022-08-14T12:48:21.516Z,81.77
2022-08-14T12:49:08.032Z,82.08
2022-08-14T12:50:07.993Z,82.16
2022-08-14T12:51:07.952Z,82.59
2022-08-14T12:52:17.047Z,86.79
2022-08-14T12:53:17.415Z,82.38
2022-08-14T12:54:07.993Z,82.34
2022-08-14T12:55:07.965Z,82.20
2022-08-14T12:56:21.836Z,83.61
2022-08-14T12:57:08.079Z,81.28
2022-08-14T12:58:29.408Z,80.73
2022-08-14T12:59:08.411Z,82.92
2022-08-14T13:00:22.700Z,81.08
2022-08-14T13:01:16.978Z,80.45
2022-08-14T13:02:11.537Z,80.81
2022-08-14T13:03:08.056Z,81.45
2022-08-14T13:04:08.062Z,85.76
2022-08-14T13:05:08.003Z,82.88
2022-08-14T13:06:08.039Z,80.47
2022-08-14T13:07:08.002Z,82.69
2022-08-14T13:08:22.519Z,81.30
2022-08-14T13:09:11.200Z,81.87
2022-08-14T13:10:46.145Z,84.10
2022-08-14T13:11:08.008Z,85.53
2022-08-14T13:12:32.269Z,81.86
2022-08-14T13:13:15.716Z,84.30
2022-08-14T13:14:08.030Z,82.19
2022-08-14T13:15:08.899Z,81.83
2022-08-14T13:16:20.460Z,84.84
2022-08-14T13:17:08.050Z,80.97
2022-08-14T13:18:08.021Z,80.95
2022-08-14T13:19:10.964Z,80.43
2022-08-14T13:20:10.225Z,79.25
2022-08-14T13:21:08.127Z,85.32
2022-08-14T13:22:10.158Z,80.70
2022-08-14T13:23:08.125Z,78.49
2022-08-14T13:24:08.174Z,78.57
2022-08-14T13:25:08.161Z,77.54
2022-08-14T13:26:08.164Z,79.08
2022-08-14T13:27:09.945Z,77.92
2022-08-14T13:28:10.885Z,78.71
2022-08-14T13:29:08.614Z,81.48
2022-08-14T13:30:10.233Z,78.95
2022-08-14T13:31:11.056Z,78.20
2022-08-14T13:32:08.201Z,78.44
2022-08-14T13:33:08.202Z,78.42
2022-08-14T13:34:08.193Z,80.14
2022-08-14T13:35:12.253Z,80.09
2022-08-14T13:36:08.209Z,78.82
2022-08-14T13:37:08.253Z,81.83
2022-08-14T13:38:08.250Z,82.69
2022-08-14T13:39:08.576Z,79.98
2022-08-14T13:40:08.247Z,84.66
2022-08-14T13:41:08.354Z,80.31
2022-08-14T13:42:10.940Z,79.09
2022-08-14T13:43:08.377Z,79.18
2022-08-14T13:44:13.870Z,80.25
2022-08-14T13:45:08.391Z,79.03
2022-08-14T13:46:08.438Z,83.19
2022-08-14T13:47:08.852Z,84.08
2022-08-14T13:48:08.481Z,83.17
2022-08-14T13:49:08.438Z,84.60
2022-08-14T13:50:08.405Z,84.81
2022-08-14T13:51:10.845Z,85.06
2022-08-14T13:52:14.693Z,85.61
2022-08-14T13:53:08.423Z,88.57
2022-08-14T13:54:10.221Z,87.19
2022-08-14T13:55:08.420Z,85.83
2022-08-14T13:56:14.765Z,87.73
2022-08-14T13:57:08.410Z,88.02
2022-08-14T13:58:08.455Z,88.40
2022-08-14T13:59:08.536Z,87.81
2022-08-14T14:00:08.414Z,89.46
2022-08-14T14:01:08.415Z,88.52
2022-08-14T14:02:08.576Z,92.62
2022-08-14T14:03:08.732Z,89.07
2022-08-14T14:04:08.440Z,89.59
2022-08-14T14:05:08.432Z,89.40
2022-08-14T14:06:08.427Z,95.61
2022-08-14T14:07:08.490Z,90.87
2022-08-14T14:08:18.547Z,90.95
2022-08-14T14:09:08.679Z,89.24
2022-08-14T14:10:08.448Z,91.35
2022-08-14T14:11:08.481Z,90.93
2022-08-14T14:12:38.321Z,91.13
2022-08-14T14:13:08.477Z,89.19
2022-08-14T14:14:08.489Z,91.16
2022-08-14T14:15:09.601Z,89.57
2022-08-14T14:16:08.555Z,92.72
2022-08-14T14:17:08.545Z,92.40
2022-08-14T14:18:29.778Z,88.79
2022-08-14T14:19:08.913Z,92.34
2022-08-14T14:20:08.493Z,91.32
2022-08-14T14:21:09.136Z,89.42
2022-08-14T14:22:09.824Z,88.23
2022-08-14T14:23:08.650Z,88.47
2022-08-14T14:24:08.542Z,93.60
2022-08-14T14:25:08.497Z,88.58
2022-08-14T14:26:13.797Z,87.81
2022-08-14T14:27:39.017Z,90.07
2022-08-14T14:28:08.511Z,88.33
2022-08-14T14:29:08.578Z,88.03
2022-08-14T14:30:46.611Z,87.88
2022-08-14T14:31:08.537Z,88.38
2022-08-14T14:32:08.515Z,90.54
2022-08-14T14:33:23.090Z,89.28
2022-08-14T14:34:28.930Z,87.63
2022-08-14T14:35:08.517Z,88.47
2022-08-14T14:36:08.527Z,90.67
2022-08-14T14:37:08.530Z,88.10
2022-08-14T14:38:08.529Z,88.59
2022-08-14T14:39:08.550Z,90.43
2022-08-14T14:40:53.787Z,91.34
2022-08-14T14:41:08.729Z,88.41
2022-08-14T14:42:09.385Z,90.57
2022-08-14T14:43:08.515Z,91.24
2022-08-14T14:44:09.156Z,87.36
2022-08-14T14:45:08.942Z,88.36
2022-08-14T14:46:09.231Z,90.43
2022-08-14T14:47:08.546Z,88.59
2022-08-14T14:48:08.561Z,88.71
2022-08-14T14:49:08.591Z,89.04
2022-08-14T14:50:08.712Z,89.85
2022-08-14T14:51:08.570Z,88.87
2022-08-14T14:52:08.591Z,90.03
2022-08-14T14:53:12.966Z,89.34
2022-08-14T14:54:08.885Z,90.76
2022-08-14T14:55:08.607Z,88.26
2022-08-14T14:56:49.493Z,88.71
2022-08-14T14:57:09.317Z,89.45
2022-08-14T14:58:08.605Z,89.00
2022-08-14T14:59:08.805Z,89.89
2022-08-14T15:00:12.426Z,88.90
2022-08-14T15:01:10.376Z,90.78
2022-08-14T15:02:09.175Z,89.28
2022-08-14T15:03:08.620Z,89.74
2022-08-14T15:04:19.874Z,88.09
2022-08-14T15:05:08.598Z,89.61
2022-08-14T15:06:08.600Z,89.16
2022-08-14T15:07:08.610Z,88.38
2022-08-14T15:08:08.612Z,90.29
2022-08-14T15:09:08.961Z,89.05
2022-08-14T15:10:27.682Z,89.68
2022-08-14T15:11:13.723Z,88.60
2022-08-14T15:12:27.942Z,89.28
2022-08-14T15:13:08.791Z,87.84
2022-08-14T15:14:55.276Z,87.77
2022-08-14T15:15:09.419Z,88.44
2022-08-14T15:16:08.681Z,87.58
2022-08-14T15:17:08.633Z,91.51
2022-08-14T15:18:35.913Z,89.09
2022-08-14T15:19:08.646Z,90.48
2022-08-14T15:20:08.647Z,89.27
2022-08-14T15:21:08.667Z,88.18
2022-08-14T15:22:10.387Z,90.53
2022-08-14T15:23:12.628Z,88.21
2022-08-14T15:24:08.832Z,90.45
2022-08-14T15:25:08.657Z,90.28
2022-08-14T15:26:08.686Z,92.17
2022-08-14T15:27:08.645Z,92.41
2022-08-14T15:28:10.832Z,90.12
2022-08-14T15:29:08.684Z,89.81
2022-08-14T15:30:08.748Z,89.38
2022-08-14T15:31:08.664Z,94.01
2022-08-14T15:32:08.808Z,92.27
2022-08-14T15:33:08.676Z,91.09
2022-08-14T15:34:44.603Z,90.66
2022-08-14T15:35:08.680Z,90.23
2022-08-14T15:36:08.774Z,90.38
2022-08-14T15:37:12.664Z,90.59
2022-08-14T15:38:08.734Z,91.11
2022-08-14T15:39:09.179Z,90.08
2022-08-14T15:40:09.851Z,91.59
2022-08-14T15:41:08.790Z,92.66
2022-08-14T15:42:14.766Z,89.81
2022-08-14T15:43:09.052Z,90.21
2022-08-14T15:44:18.831Z,89.48
2022-08-14T15:45:08.717Z,90.48
2022-08-14T15:46:08.709Z,89.39
2022-08-14T15:47:08.714Z,91.02
2022-08-14T15:48:13.994Z,91.80
2022-08-14T15:49:08.793Z,92.88
2022-08-14T15:50:08.768Z,91.55
2022-08-14T15:51:08.787Z,88.94
2022-08-14T15:52:08.744Z,88.04
2022-08-14T15:53:08.735Z,88.83
2022-08-14T15:54:11.475Z,88.73
2022-08-14T15:55:08.756Z,89.63
2022-08-14T15:56:08.764Z,89.07
2022-08-14T15:57:08.740Z,90.83
2022-08-14T15:58:13.051Z,92.33
2022-08-14T15:59:09.176Z,91.70
2022-08-14T16:00:11.540Z,91.95
2022-08-14T16:01:08.769Z,91.35
2022-08-14T16:02:08.794Z,90.03
2022-08-14T16:03:08.902Z,93.80
2022-08-14T16:04:08.794Z,91.03
2022-08-14T16:05:08.941Z,91.37
2022-08-14T16:06:10.713Z,92.13
2022-08-14T16:07:09.042Z,93.58
2022-08-14T16:08:28.869Z,90.30
2022-08-14T16:09:11.286Z,94.72
2022-08-14T16:10:28.857Z,92.26
2022-08-14T16:11:08.818Z,94.67
2022-08-14T16:12:08.796Z,97.84
2022-08-14T16:13:08.792Z,92.90
2022-08-14T16:14:08.822Z,92.56
2022-08-14T16:15:09.746Z,92.38
2022-08-14T16:16:49.715Z,92.81
2022-08-14T16:17:08.838Z,95.12
2022-08-14T16:18:08.880Z,93.45
2022-08-14T16:19:10.313Z,92.77
2022-08-14T16:20:08.897Z,93.03
2022-08-14T16:21:08.816Z,93.25
2022-08-14T16:22:58.251Z,92.54
2022-08-14T16:23:11.875Z,92.10
2022-08-14T16:24:27.556Z,92.24
2022-08-14T16:25:08.976Z,91.29
2022-08-14T16:26:08.977Z,94.53
2022-08-14T16:27:09.004Z,92.75
2022-08-14T16:28:08.978Z,93.11
2022-08-14T16:29:09.340Z,93.62
2022-08-14T16:30:10.792Z,91.20
2022-08-14T16:31:09.889Z,93.52
2022-08-14T16:32:32.070Z,90.83
